sensor_id;sensor_type;location;lat;lon;timestamp;P1;durP1;ratioP1;P2;durP2;ratioP2
10811;SDS011;5458;51.496;7.334;2023-01-10T00:02:01;11.00;;;7.20;;
10811;SDS011;5458;51.496;7.334;2023-01-10T00:04:27;13.82;;;8.25;;
10811;SDS011;5458;51.496;7.334;2023-01-10T00:06:53;13.90;;;8.55;;
10811;SDS011;5458;51.496;7.334;2023-01-10T00:09:19;15.02;;;7.53;;
10811;SDS011;5458;51.496;7.334;2023-01-10T00:11:45;10.90;;;7.53;;
10811;SDS011;5458;51.496;7.334;2023-01-10T00:14:29;15.10;;;8.10;;
10811;SDS011;5458;51.496;7.334;2023-01-10T00:16:57;21.73;;;9.00;;
10811;SDS011;5458;51.496;7.334;2023-01-10T00:19:23;15.73;;;8.70;;
10811;SDS011;5458;51.496;7.334;2023-01-10T00:21:48;14.23;;;8.25;;
10811;SDS011;5458;51.496;7.334;2023-01-10T00:24:14;12.02;;;8.07;;
10811;SDS011;5458;51.496;7.334;2023-01-10T00:26:49;15.77;;;8.30;;
10811;SDS011;5458;51.496;7.334;2023-01-10T00:29:16;11.80;;;7.35;;
10811;SDS011;5458;51.496;7.334;2023-01-10T00:31:46;14.45;;;8.02;;
10811;SDS011;5458;51.496;7.334;2023-01-10T00:34:12;15.65;;;7.03;;
10811;SDS011;5458;51.496;7.334;2023-01-10T00:36:37;14.82;;;7.30;;
10811;SDS011;5458;51.496;7.334;2023-01-10T00:39:03;12.75;;;7.90;;
10811;SDS011;5458;51.496;7.334;2023-01-10T00:41:29;11.82;;;7.32;;
10811;SDS011;5458;51.496;7.334;2023-01-10T00:44:14;12.82;;;7.03;;
10811;SDS011;5458;51.496;7.334;2023-01-10T00:46:39;10.52;;;7.18;;
10811;SDS011;5458;51.496;7.334;2023-01-10T00:49:05;13.45;;;7.07;;
10811;SDS011;5458;51.496;7.334;2023-01-10T00:51:35;13.90;;;7.53;;
10811;SDS011;5458;51.496;7.334;2023-01-10T00:54:00;12.07;;;7.18;;
10811;SDS011;5458;51.496;7.334;2023-01-10T00:56:26;14.90;;;8.02;;
10811;SDS011;5458;51.496;7.334;2023-01-10T00:58:51;9.05;;;7.32;;
10811;SDS011;5458;51.496;7.334;2023-01-10T01:01:17;12.88;;;7.88;;
10811;SDS011;5458;51.496;7.334;2023-01-10T01:03:42;14.98;;;7.43;;
10811;SDS011;5458;51.496;7.334;2023-01-10T01:06:08;13.55;;;7.72;;
10811;SDS011;5458;51.496;7.334;2023-01-10T01:08:33;12.82;;;7.63;;
10811;SDS011;5458;51.496;7.334;2023-01-10T01:10:59;11.07;;;7.18;;
10811;SDS011;5458;51.496;7.334;2023-01-10T01:13:25;13.60;;;6.68;;
10811;SDS011;5458;51.496;7.334;2023-01-10T01:15:51;11.55;;;7.70;;
10811;SDS011;5458;51.496;7.334;2023-01-10T01:18:20;12.85;;;6.30;;
10811;SDS011;5458;51.496;7.334;2023-01-10T01:20:46;11.00;;;6.72;;
10811;SDS011;5458;51.496;7.334;2023-01-10T01:23:15;11.25;;;6.43;;
10811;SDS011;5458;51.496;7.334;2023-01-10T01:25:41;12.57;;;5.80;;
10811;SDS011;5458;51.496;7.334;2023-01-10T01:28:07;8.18;;;5.57;;
10811;SDS011;5458;51.496;7.334;2023-01-10T01:30:35;14.43;;;5.57;;
10811;SDS011;5458;51.496;7.334;2023-01-10T01:33:01;11.20;;;5.72;;
10811;SDS011;5458;51.496;7.334;2023-01-10T01:35:27;10.88;;;6.47;;
10811;SDS011;5458;51.496;7.334;2023-01-10T01:37:52;9.40;;;5.25;;
10811;SDS011;5458;51.496;7.334;2023-01-10T01:40:19;11.65;;;5.78;;
10811;SDS011;5458;51.496;7.334;2023-01-10T01:42:46;11.15;;;6.32;;
10811;SDS011;5458;51.496;7.334;2023-01-10T01:50:15;13.52;;;5.65;;
10811;SDS011;5458;51.496;7.334;2023-01-10T01:52:47;10.15;;;5.35;;
10811;SDS011;5458;51.496;7.334;2023-01-10T01:55:15;10.82;;;6.13;;
10811;SDS011;5458;51.496;7.334;2023-01-10T01:57:41;8.30;;;5.15;;
10811;SDS011;5458;51.496;7.334;2023-01-10T02:00:10;9.45;;;5.07;;
10811;SDS011;5458;51.496;7.334;2023-01-10T02:02:37;8.68;;;5.50;;
10811;SDS011;5458;51.496;7.334;2023-01-10T02:05:11;8.88;;;5.03;;
10811;SDS011;5458;51.496;7.334;2023-01-10T02:07:40;9.20;;;5.05;;
10811;SDS011;5458;51.496;7.334;2023-01-10T02:12:49;9.07;;;4.90;;
10811;SDS011;5458;51.496;7.334;2023-01-10T02:15:17;11.65;;;5.45;;
10811;SDS011;5458;51.496;7.334;2023-01-10T02:17:46;10.73;;;5.43;;
10811;SDS011;5458;51.496;7.334;2023-01-10T02:20:14;14.13;;;5.75;;
10811;SDS011;5458;51.496;7.334;2023-01-10T02:33:38;7.82;;;4.53;;
10811;SDS011;5458;51.496;7.334;2023-01-10T02:36:43;11.40;;;6.20;;
10811;SDS011;5458;51.496;7.334;2023-01-10T02:39:28;9.57;;;4.50;;
10811;SDS011;5458;51.496;7.334;2023-01-10T02:42:01;13.52;;;4.15;;
10811;SDS011;5458;51.496;7.334;2023-01-10T02:44:45;10.25;;;4.68;;
10811;SDS011;5458;51.496;7.334;2023-01-10T02:47:36;7.22;;;4.50;;
10811;SDS011;5458;51.496;7.334;2023-01-10T02:52:50;10.45;;;4.10;;
10811;SDS011;5458;51.496;7.334;2023-01-10T02:55:16;12.48;;;4.68;;
10811;SDS011;5458;51.496;7.334;2023-01-10T03:00:17;10.05;;;4.60;;
10811;SDS011;5458;51.496;7.334;2023-01-10T03:10:44;10.18;;;3.80;;
10811;SDS011;5458;51.496;7.334;2023-01-10T03:13:21;9.30;;;4.07;;
10811;SDS011;5458;51.496;7.334;2023-01-10T03:15:54;11.70;;;4.30;;
10811;SDS011;5458;51.496;7.334;2023-01-10T03:18:55;8.48;;;3.35;;
10811;SDS011;5458;51.496;7.334;2023-01-10T03:21:20;11.48;;;4.20;;
10811;SDS011;5458;51.496;7.334;2023-01-10T03:23:49;8.77;;;3.92;;
10811;SDS011;5458;51.496;7.334;2023-01-10T03:26:19;8.23;;;3.38;;
10811;SDS011;5458;51.496;7.334;2023-01-10T03:28:51;9.50;;;3.13;;
10811;SDS011;5458;51.496;7.334;2023-01-10T03:31:25;7.57;;;3.05;;
10811;SDS011;5458;51.496;7.334;2023-01-10T03:33:55;8.05;;;4.10;;
10811;SDS011;5458;51.496;7.334;2023-01-10T03:36:29;7.45;;;3.75;;
10811;SDS011;5458;51.496;7.334;2023-01-10T03:49:49;9.77;;;3.13;;
10811;SDS011;5458;51.496;7.334;2023-01-10T03:52:18;13.07;;;4.03;;
10811;SDS011;5458;51.496;7.334;2023-01-10T03:54:45;7.72;;;4.38;;
10811;SDS011;5458;51.496;7.334;2023-01-10T03:57:21;9.82;;;4.47;;
10811;SDS011;5458;51.496;7.334;2023-01-10T03:59:49;11.27;;;4.35;;
10811;SDS011;5458;51.496;7.334;2023-01-10T04:02:18;9.30;;;4.05;;
10811;SDS011;5458;51.496;7.334;2023-01-10T04:04:44;8.07;;;4.50;;
10811;SDS011;5458;51.496;7.334;2023-01-10T04:07:09;9.00;;;4.80;;
10811;SDS011;5458;51.496;7.334;2023-01-10T04:09:35;10.48;;;4.10;;
10811;SDS011;5458;51.496;7.334;2023-01-10T04:12:00;7.88;;;4.63;;
10811;SDS011;5458;51.496;7.334;2023-01-10T04:14:26;12.63;;;5.78;;
10811;SDS011;5458;51.496;7.334;2023-01-10T04:16:52;7.57;;;4.40;;
10811;SDS011;5458;51.496;7.334;2023-01-10T04:19:19;9.48;;;4.90;;
10811;SDS011;5458;51.496;7.334;2023-01-10T04:21:45;14.13;;;5.43;;
10811;SDS011;5458;51.496;7.334;2023-01-10T04:24:10;9.18;;;4.75;;
10811;SDS011;5458;51.496;7.334;2023-01-10T04:26:36;8.02;;;4.45;;
10811;SDS011;5458;51.496;7.334;2023-01-10T04:29:02;11.43;;;4.90;;
10811;SDS011;5458;51.496;7.334;2023-01-10T04:31:29;10.18;;;4.30;;
10811;SDS011;5458;51.496;7.334;2023-01-10T04:33:55;10.50;;;4.95;;
10811;SDS011;5458;51.496;7.334;2023-01-10T04:36:21;14.35;;;5.18;;
10811;SDS011;5458;51.496;7.334;2023-01-10T04:38:46;7.75;;;4.32;;
10811;SDS011;5458;51.496;7.334;2023-01-10T04:41:12;9.73;;;4.60;;
10811;SDS011;5458;51.496;7.334;2023-01-10T04:43:38;12.18;;;4.50;;
10811;SDS011;5458;51.496;7.334;2023-01-10T04:46:03;10.07;;;3.72;;
10811;SDS011;5458;51.496;7.334;2023-01-10T04:48:29;11.25;;;4.88;;
10811;SDS011;5458;51.496;7.334;2023-01-10T04:50:54;11.02;;;5.25;;
10811;SDS011;5458;51.496;7.334;2023-01-10T04:53:20;7.45;;;4.90;;
10811;SDS011;5458;51.496;7.334;2023-01-10T04:55:46;13.77;;;4.05;;
10811;SDS011;5458;51.496;7.334;2023-01-10T04:58:12;10.45;;;4.10;;
10811;SDS011;5458;51.496;7.334;2023-01-10T05:00:38;11.63;;;4.80;;
10811;SDS011;5458;51.496;7.334;2023-01-10T05:03:04;8.93;;;3.83;;
10811;SDS011;5458;51.496;7.334;2023-01-10T05:05:30;10.88;;;4.00;;
10811;SDS011;5458;51.496;7.334;2023-01-10T05:07:56;11.40;;;5.63;;
10811;SDS011;5458;51.496;7.334;2023-01-10T05:10:21;7.88;;;3.53;;
10811;SDS011;5458;51.496;7.334;2023-01-10T05:12:47;10.88;;;3.92;;
10811;SDS011;5458;51.496;7.334;2023-01-10T05:15:13;9.10;;;4.25;;
10811;SDS011;5458;51.496;7.334;2023-01-10T05:17:38;11.73;;;4.63;;
10811;SDS011;5458;51.496;7.334;2023-01-10T05:20:04;6.25;;;3.47;;
10811;SDS011;5458;51.496;7.334;2023-01-10T05:22:31;9.90;;;3.75;;
10811;SDS011;5458;51.496;7.334;2023-01-10T05:24:58;10.50;;;3.65;;
10811;SDS011;5458;51.496;7.334;2023-01-10T05:27:23;8.23;;;4.45;;
10811;SDS011;5458;51.496;7.334;2023-01-10T05:29:49;10.43;;;4.45;;
10811;SDS011;5458;51.496;7.334;2023-01-10T05:32:14;14.93;;;4.60;;
10811;SDS011;5458;51.496;7.334;2023-01-10T05:34:40;11.02;;;4.43;;
10811;SDS011;5458;51.496;7.334;2023-01-10T05:37:06;11.10;;;4.07;;
10811;SDS011;5458;51.496;7.334;2023-01-10T05:39:32;14.77;;;4.03;;
10811;SDS011;5458;51.496;7.334;2023-01-10T05:41:57;10.65;;;4.40;;
10811;SDS011;5458;51.496;7.334;2023-01-10T05:44:24;11.80;;;3.83;;
10811;SDS011;5458;51.496;7.334;2023-01-10T05:46:50;12.88;;;4.18;;
10811;SDS011;5458;51.496;7.334;2023-01-10T05:49:15;8.93;;;3.88;;
10811;SDS011;5458;51.496;7.334;2023-01-10T05:51:41;10.25;;;4.47;;
10811;SDS011;5458;51.496;7.334;2023-01-10T05:54:06;8.13;;;3.50;;
10811;SDS011;5458;51.496;7.334;2023-01-10T05:56:32;12.60;;;4.00;;
10811;SDS011;5458;51.496;7.334;2023-01-10T05:58:58;15.50;;;4.13;;
10811;SDS011;5458;51.496;7.334;2023-01-10T06:01:24;14.68;;;4.60;;
10811;SDS011;5458;51.496;7.334;2023-01-10T06:03:49;9.05;;;3.50;;
10811;SDS011;5458;51.496;7.334;2023-01-10T06:06:15;13.73;;;5.13;;
10811;SDS011;5458;51.496;7.334;2023-01-10T06:08:40;7.55;;;3.40;;
10811;SDS011;5458;51.496;7.334;2023-01-10T06:11:06;10.48;;;4.35;;
10811;SDS011;5458;51.496;7.334;2023-01-10T06:13:32;8.32;;;3.92;;
10811;SDS011;5458;51.496;7.334;2023-01-10T06:15:57;12.70;;;4.40;;
10811;SDS011;5458;51.496;7.334;2023-01-10T06:18:23;11.23;;;4.28;;
10811;SDS011;5458;51.496;7.334;2023-01-10T06:20:49;10.60;;;3.92;;
10811;SDS011;5458;51.496;7.334;2023-01-10T06:23:15;11.77;;;4.78;;
10811;SDS011;5458;51.496;7.334;2023-01-10T06:25:40;12.82;;;3.75;;
10811;SDS011;5458;51.496;7.334;2023-01-10T06:28:07;8.48;;;4.53;;
10811;SDS011;5458;51.496;7.334;2023-01-10T06:30:34;15.15;;;5.15;;
10811;SDS011;5458;51.496;7.334;2023-01-10T06:33:00;14.00;;;5.00;;
10811;SDS011;5458;51.496;7.334;2023-01-10T06:35:27;9.68;;;4.25;;
10811;SDS011;5458;51.496;7.334;2023-01-10T06:37:53;8.60;;;3.58;;
10811;SDS011;5458;51.496;7.334;2023-01-10T06:40:18;10.60;;;4.80;;
10811;SDS011;5458;51.496;7.334;2023-01-10T06:42:44;17.33;;;4.88;;
10811;SDS011;5458;51.496;7.334;2023-01-10T06:45:10;13.35;;;4.30;;
10811;SDS011;5458;51.496;7.334;2023-01-10T06:47:36;13.25;;;4.38;;
10811;SDS011;5458;51.496;7.334;2023-01-10T06:50:01;13.27;;;4.40;;
10811;SDS011;5458;51.496;7.334;2023-01-10T06:52:27;12.45;;;4.63;;
10811;SDS011;5458;51.496;7.334;2023-01-10T06:54:54;9.52;;;4.25;;
10811;SDS011;5458;51.496;7.334;2023-01-10T06:57:19;14.10;;;5.10;;
10811;SDS011;5458;51.496;7.334;2023-01-10T06:59:45;9.43;;;4.30;;
10811;SDS011;5458;51.496;7.334;2023-01-10T07:02:11;13.25;;;4.43;;
10811;SDS011;5458;51.496;7.334;2023-01-10T07:04:36;22.60;;;5.32;;
10811;SDS011;5458;51.496;7.334;2023-01-10T07:07:02;15.32;;;5.05;;
10811;SDS011;5458;51.496;7.334;2023-01-10T07:09:27;15.05;;;5.00;;
10811;SDS011;5458;51.496;7.334;2023-01-10T07:11:53;12.90;;;4.90;;
10811;SDS011;5458;51.496;7.334;2023-01-10T07:14:19;11.20;;;6.13;;
10811;SDS011;5458;51.496;7.334;2023-01-10T07:16:45;12.55;;;4.63;;
10811;SDS011;5458;51.496;7.334;2023-01-10T07:19:10;12.98;;;5.40;;
10811;SDS011;5458;51.496;7.334;2023-01-10T07:21:37;16.23;;;5.13;;
10811;SDS011;5458;51.496;7.334;2023-01-10T07:24:03;17.25;;;5.88;;
10811;SDS011;5458;51.496;7.334;2023-01-10T07:26:29;16.15;;;5.35;;
10811;SDS011;5458;51.496;7.334;2023-01-10T07:28:55;16.52;;;5.75;;
10811;SDS011;5458;51.496;7.334;2023-01-10T07:31:20;18.67;;;5.65;;
10811;SDS011;5458;51.496;7.334;2023-01-10T07:33:47;18.67;;;5.90;;
10811;SDS011;5458;51.496;7.334;2023-01-10T07:36:14;21.40;;;6.47;;
10811;SDS011;5458;51.496;7.334;2023-01-10T07:38:40;15.82;;;6.40;;
10811;SDS011;5458;51.496;7.334;2023-01-10T07:41:06;14.77;;;5.10;;
10811;SDS011;5458;51.496;7.334;2023-01-10T07:43:32;21.75;;;6.45;;
10811;SDS011;5458;51.496;7.334;2023-01-10T07:46:01;14.07;;;5.80;;
10811;SDS011;5458;51.496;7.334;2023-01-10T07:48:28;14.25;;;5.40;;
10811;SDS011;5458;51.496;7.334;2023-01-10T07:50:55;15.80;;;6.40;;
10811;SDS011;5458;51.496;7.334;2023-01-10T07:53:25;17.73;;;5.28;;
10811;SDS011;5458;51.496;7.334;2023-01-10T07:55:52;24.60;;;6.22;;
10811;SDS011;5458;51.496;7.334;2023-01-10T07:58:18;18.20;;;6.72;;
10811;SDS011;5458;51.496;7.334;2023-01-10T08:00:44;16.35;;;5.57;;
10811;SDS011;5458;51.496;7.334;2023-01-10T08:03:10;18.00;;;7.10;;
10811;SDS011;5458;51.496;7.334;2023-01-10T08:05:36;12.38;;;6.32;;
10811;SDS011;5458;51.496;7.334;2023-01-10T08:08:05;15.93;;;6.53;;
10811;SDS011;5458;51.496;7.334;2023-01-10T08:10:35;17.55;;;5.88;;
10811;SDS011;5458;51.496;7.334;2023-01-10T08:13:02;23.17;;;7.00;;
10811;SDS011;5458;51.496;7.334;2023-01-10T08:15:28;16.30;;;6.10;;
10811;SDS011;5458;51.496;7.334;2023-01-10T08:17:54;20.38;;;6.25;;
10811;SDS011;5458;51.496;7.334;2023-01-10T08:20:19;20.33;;;6.20;;
10811;SDS011;5458;51.496;7.334;2023-01-10T08:22:45;22.50;;;7.57;;
10811;SDS011;5458;51.496;7.334;2023-01-10T08:25:10;15.25;;;6.10;;
10811;SDS011;5458;51.496;7.334;2023-01-10T08:27:36;16.55;;;6.28;;
10811;SDS011;5458;51.496;7.334;2023-01-10T08:30:05;18.58;;;5.75;;
10811;SDS011;5458;51.496;7.334;2023-01-10T08:32:31;13.65;;;6.10;;
10811;SDS011;5458;51.496;7.334;2023-01-10T08:34:57;21.05;;;7.53;;
10811;SDS011;5458;51.496;7.334;2023-01-10T08:37:23;22.23;;;6.80;;
10811;SDS011;5458;51.496;7.334;2023-01-10T08:39:48;14.32;;;6.20;;
10811;SDS011;5458;51.496;7.334;2023-01-10T08:42:14;20.52;;;7.80;;
10811;SDS011;5458;51.496;7.334;2023-01-10T08:44:43;18.73;;;6.70;;
10811;SDS011;5458;51.496;7.334;2023-01-10T08:47:09;19.95;;;6.28;;
10811;SDS011;5458;51.496;7.334;2023-01-10T08:49:34;15.70;;;5.70;;
10811;SDS011;5458;51.496;7.334;2023-01-10T08:52:00;17.27;;;6.32;;
10811;SDS011;5458;51.496;7.334;2023-01-10T08:54:29;20.92;;;6.60;;
10811;SDS011;5458;51.496;7.334;2023-01-10T08:56:54;21.35;;;6.53;;
10811;SDS011;5458;51.496;7.334;2023-01-10T08:59:20;23.52;;;6.85;;
10811;SDS011;5458;51.496;7.334;2023-01-10T09:01:45;16.25;;;5.97;;
10811;SDS011;5458;51.496;7.334;2023-01-10T09:04:11;16.27;;;6.50;;
10811;SDS011;5458;51.496;7.334;2023-01-10T09:06:36;17.83;;;6.50;;
10811;SDS011;5458;51.496;7.334;2023-01-10T09:09:02;16.73;;;5.82;;
10811;SDS011;5458;51.496;7.334;2023-01-10T09:11:28;14.63;;;7.05;;
10811;SDS011;5458;51.496;7.334;2023-01-10T09:13:54;17.70;;;6.53;;
10811;SDS011;5458;51.496;7.334;2023-01-10T09:16:20;14.48;;;5.38;;
10811;SDS011;5458;51.496;7.334;2023-01-10T09:18:45;10.77;;;5.15;;
10811;SDS011;5458;51.496;7.334;2023-01-10T09:21:11;20.35;;;6.43;;
10811;SDS011;5458;51.496;7.334;2023-01-10T09:23:36;21.15;;;6.20;;
10811;SDS011;5458;51.496;7.334;2023-01-10T09:26:04;20.83;;;6.10;;
10811;SDS011;5458;51.496;7.334;2023-01-10T09:28:30;13.10;;;5.40;;
10811;SDS011;5458;51.496;7.334;2023-01-10T09:30:56;19.83;;;6.47;;
10811;SDS011;5458;51.496;7.334;2023-01-10T09:33:21;16.55;;;6.93;;
10811;SDS011;5458;51.496;7.334;2023-01-10T09:35:47;15.98;;;5.25;;
10811;SDS011;5458;51.496;7.334;2023-01-10T09:38:13;21.25;;;7.05;;
10811;SDS011;5458;51.496;7.334;2023-01-10T09:46:16;18.38;;;6.05;;
10811;SDS011;5458;51.496;7.334;2023-01-10T09:49:02;18.98;;;5.30;;
10811;SDS011;5458;51.496;7.334;2023-01-10T09:51:48;12.68;;;5.05;;
10811;SDS011;5458;51.496;7.334;2023-01-10T09:54:26;19.65;;;5.72;;
10811;SDS011;5458;51.496;7.334;2023-01-10T09:56:53;16.92;;;5.75;;
10811;SDS011;5458;51.496;7.334;2023-01-10T09:59:23;10.25;;;5.80;;
10811;SDS011;5458;51.496;7.334;2023-01-10T10:01:59;17.05;;;5.72;;
10811;SDS011;5458;51.496;7.334;2023-01-10T10:04:38;13.63;;;5.55;;
10811;SDS011;5458;51.496;7.334;2023-01-10T10:07:07;15.48;;;6.18;;
10811;SDS011;5458;51.496;7.334;2023-01-10T10:09:37;17.33;;;6.20;;
10811;SDS011;5458;51.496;7.334;2023-01-10T10:17:31;14.07;;;5.10;;
10811;SDS011;5458;51.496;7.334;2023-01-10T10:23:17;13.73;;;5.80;;
10811;SDS011;5458;51.496;7.334;2023-01-10T10:25:49;11.93;;;4.45;;
10811;SDS011;5458;51.496;7.334;2023-01-10T10:28:51;18.48;;;7.35;;
10811;SDS011;5458;51.496;7.334;2023-01-10T10:40:10;11.60;;;6.10;;
10811;SDS011;5458;51.496;7.334;2023-01-10T10:42:42;11.95;;;5.28;;
10811;SDS011;5458;51.496;7.334;2023-01-10T10:47:45;15.48;;;4.90;;
10811;SDS011;5458;51.496;7.334;2023-01-10T10:50:18;15.85;;;5.40;;
10811;SDS011;5458;51.496;7.334;2023-01-10T10:52:53;20.45;;;6.25;;
10811;SDS011;5458;51.496;7.334;2023-01-10T10:55:21;14.13;;;4.72;;
10811;SDS011;5458;51.496;7.334;2023-01-10T10:57:52;18.40;;;5.72;;
10811;SDS011;5458;51.496;7.334;2023-01-10T11:00:18;14.50;;;4.45;;
10811;SDS011;5458;51.496;7.334;2023-01-10T11:02:50;23.48;;;5.63;;
10811;SDS011;5458;51.496;7.334;2023-01-10T11:05:27;14.63;;;4.57;;
10811;SDS011;5458;51.496;7.334;2023-01-10T11:08:00;17.73;;;4.32;;
10811;SDS011;5458;51.496;7.334;2023-01-10T11:10:38;15.93;;;4.68;;
10811;SDS011;5458;51.496;7.334;2023-01-10T11:13:11;13.68;;;5.60;;
10811;SDS011;5458;51.496;7.334;2023-01-10T11:15:48;14.88;;;5.45;;
10811;SDS011;5458;51.496;7.334;2023-01-10T11:18:15;13.82;;;6.32;;
10811;SDS011;5458;51.496;7.334;2023-01-10T11:23:28;18.73;;;6.10;;
10811;SDS011;5458;51.496;7.334;2023-01-10T11:26:25;20.00;;;5.68;;
10811;SDS011;5458;51.496;7.334;2023-01-10T11:31:45;15.63;;;5.43;;
10811;SDS011;5458;51.496;7.334;2023-01-10T11:34:32;14.13;;;5.22;;
10811;SDS011;5458;51.496;7.334;2023-01-10T11:37:03;22.40;;;5.65;;
10811;SDS011;5458;51.496;7.334;2023-01-10T11:39:41;14.63;;;5.30;;
10811;SDS011;5458;51.496;7.334;2023-01-10T11:44:48;17.17;;;5.35;;
10811;SDS011;5458;51.496;7.334;2023-01-10T11:47:14;16.05;;;6.07;;
10811;SDS011;5458;51.496;7.334;2023-01-10T11:49:44;14.27;;;5.40;;
10811;SDS011;5458;51.496;7.334;2023-01-10T11:52:32;17.05;;;5.28;;
10811;SDS011;5458;51.496;7.334;2023-01-10T11:54:57;16.13;;;6.20;;
10811;SDS011;5458;51.496;7.334;2023-01-10T11:57:28;16.52;;;4.85;;
10811;SDS011;5458;51.496;7.334;2023-01-10T11:59:57;19.55;;;5.53;;
10811;SDS011;5458;51.496;7.334;2023-01-10T12:02:30;16.40;;;4.55;;
10811;SDS011;5458;51.496;7.334;2023-01-10T12:04:59;23.70;;;6.32;;
10811;SDS011;5458;51.496;7.334;2023-01-10T12:07:29;14.70;;;4.82;;
10811;SDS011;5458;51.496;7.334;2023-01-10T12:10:18;26.55;;;6.80;;
10811;SDS011;5458;51.496;7.334;2023-01-10T12:12:51;14.63;;;4.70;;
10811;SDS011;5458;51.496;7.334;2023-01-10T12:17:52;18.45;;;5.10;;
10811;SDS011;5458;51.496;7.334;2023-01-10T12:20:21;14.48;;;4.80;;
10811;SDS011;5458;51.496;7.334;2023-01-10T12:22:48;8.00;;;4.32;;
10811;SDS011;5458;51.496;7.334;2023-01-10T12:25:23;13.55;;;4.78;;
10811;SDS011;5458;51.496;7.334;2023-01-10T12:27:57;12.95;;;5.22;;
10811;SDS011;5458;51.496;7.334;2023-01-10T12:32:57;20.05;;;5.20;;
10811;SDS011;5458;51.496;7.334;2023-01-10T12:35:35;14.68;;;5.63;;
10811;SDS011;5458;51.496;7.334;2023-01-10T12:41:07;17.73;;;5.68;;
10811;SDS011;5458;51.496;7.334;2023-01-10T12:43:57;12.88;;;4.28;;
10811;SDS011;5458;51.496;7.334;2023-01-10T12:46:43;12.80;;;4.40;;
10811;SDS011;5458;51.496;7.334;2023-01-10T12:49:19;9.73;;;4.68;;
10811;SDS011;5458;51.496;7.334;2023-01-10T12:51:48;13.15;;;4.50;;
10811;SDS011;5458;51.496;7.334;2023-01-10T12:54:21;13.15;;;4.00;;
10811;SDS011;5458;51.496;7.334;2023-01-10T12:56:50;10.05;;;4.47;;
10811;SDS011;5458;51.496;7.334;2023-01-10T12:59:17;12.90;;;4.57;;
10811;SDS011;5458;51.496;7.334;2023-01-10T13:01:49;11.00;;;4.13;;
10811;SDS011;5458;51.496;7.334;2023-01-10T13:04:21;13.77;;;4.25;;
10811;SDS011;5458;51.496;7.334;2023-01-10T13:06:48;13.45;;;4.65;;
10811;SDS011;5458;51.496;7.334;2023-01-10T13:09:15;13.75;;;5.22;;
10811;SDS011;5458;51.496;7.334;2023-01-10T13:11:49;15.25;;;4.72;;
10811;SDS011;5458;51.496;7.334;2023-01-10T13:22:41;19.90;;;4.68;;
10811;SDS011;5458;51.496;7.334;2023-01-10T13:25:22;13.15;;;4.00;;
10811;SDS011;5458;51.496;7.334;2023-01-10T13:28:07;15.80;;;5.35;;
10811;SDS011;5458;51.496;7.334;2023-01-10T13:30:42;15.23;;;4.60;;
10811;SDS011;5458;51.496;7.334;2023-01-10T13:33:21;14.48;;;4.28;;
10811;SDS011;5458;51.496;7.334;2023-01-10T13:35:49;12.25;;;4.40;;
10811;SDS011;5458;51.496;7.334;2023-01-10T13:38:21;12.40;;;3.90;;
10811;SDS011;5458;51.496;7.334;2023-01-10T13:41:08;12.45;;;3.65;;
10811;SDS011;5458;51.496;7.334;2023-01-10T13:46:31;7.97;;;2.80;;
10811;SDS011;5458;51.496;7.334;2023-01-10T13:51:27;14.48;;;3.83;;
10811;SDS011;5458;51.496;7.334;2023-01-10T13:54:54;8.10;;;3.38;;
10811;SDS011;5458;51.496;7.334;2023-01-10T13:56:49;11.75;;;3.88;;
10811;SDS011;5458;51.496;7.334;2023-01-10T14:02:09;8.77;;;4.20;;
10811;SDS011;5458;51.496;7.334;2023-01-10T14:04:53;12.27;;;4.53;;
10811;SDS011;5458;51.496;7.334;2023-01-10T14:10:22;9.00;;;4.10;;
10811;SDS011;5458;51.496;7.334;2023-01-10T14:12:58;11.85;;;3.72;;
10811;SDS011;5458;51.496;7.334;2023-01-10T14:15:38;8.02;;;4.55;;
10811;SDS011;5458;51.496;7.334;2023-01-10T14:18:21;14.63;;;4.03;;
10811;SDS011;5458;51.496;7.334;2023-01-10T14:21:06;11.27;;;3.25;;
10811;SDS011;5458;51.496;7.334;2023-01-10T14:23:43;8.00;;;3.45;;
10811;SDS011;5458;51.496;7.334;2023-01-10T14:26:20;9.20;;;3.22;;
10811;SDS011;5458;51.496;7.334;2023-01-10T14:28:47;12.68;;;4.25;;
10811;SDS011;5458;51.496;7.334;2023-01-10T14:31:23;11.93;;;3.63;;
10811;SDS011;5458;51.496;7.334;2023-01-10T14:33:50;11.77;;;3.33;;
10811;SDS011;5458;51.496;7.334;2023-01-10T14:36:23;10.48;;;3.92;;
10811;SDS011;5458;51.496;7.334;2023-01-10T14:38:57;8.65;;;3.28;;
10811;SDS011;5458;51.496;7.334;2023-01-10T14:41:38;7.93;;;3.70;;
10811;SDS011;5458;51.496;7.334;2023-01-10T14:44:12;13.77;;;4.38;;
10811;SDS011;5458;51.496;7.334;2023-01-10T14:46:54;9.85;;;5.35;;
10811;SDS011;5458;51.496;7.334;2023-01-10T14:49:25;7.35;;;3.53;;
10811;SDS011;5458;51.496;7.334;2023-01-10T14:51:51;13.93;;;3.80;;
10811;SDS011;5458;51.496;7.334;2023-01-10T14:54:24;9.70;;;4.15;;
10811;SDS011;5458;51.496;7.334;2023-01-10T14:56:51;11.65;;;4.05;;
10811;SDS011;5458;51.496;7.334;2023-01-10T15:02:01;11.65;;;4.47;;
10811;SDS011;5458;51.496;7.334;2023-01-10T15:04:35;11.18;;;4.50;;
10811;SDS011;5458;51.496;7.334;2023-01-10T15:07:02;9.52;;;3.88;;
10811;SDS011;5458;51.496;7.334;2023-01-10T15:09:35;6.93;;;3.10;;
10811;SDS011;5458;51.496;7.334;2023-01-10T15:12:01;8.18;;;4.00;;
10811;SDS011;5458;51.496;7.334;2023-01-10T15:14:29;14.40;;;4.20;;
10811;SDS011;5458;51.496;7.334;2023-01-10T15:16:57;9.30;;;4.18;;
10811;SDS011;5458;51.496;7.334;2023-01-10T15:19:30;10.27;;;3.45;;
10811;SDS011;5458;51.496;7.334;2023-01-10T15:21:59;14.75;;;4.03;;
10811;SDS011;5458;51.496;7.334;2023-01-10T15:24:32;9.85;;;3.60;;
10811;SDS011;5458;51.496;7.334;2023-01-10T15:27:03;9.43;;;4.43;;
10811;SDS011;5458;51.496;7.334;2023-01-10T15:29:32;13.45;;;4.65;;
10811;SDS011;5458;51.496;7.334;2023-01-10T15:32:06;9.20;;;4.03;;
10811;SDS011;5458;51.496;7.334;2023-01-10T15:34:35;15.55;;;4.47;;
10811;SDS011;5458;51.496;7.334;2023-01-10T15:37:02;8.55;;;3.20;;
10811;SDS011;5458;51.496;7.334;2023-01-10T15:39:32;7.53;;;3.22;;
10811;SDS011;5458;51.496;7.334;2023-01-10T15:42:08;11.27;;;4.05;;
10811;SDS011;5458;51.496;7.334;2023-01-10T15:47:02;8.20;;;2.90;;
10811;SDS011;5458;51.496;7.334;2023-01-10T15:49:28;14.80;;;3.88;;
10811;SDS011;5458;51.496;7.334;2023-01-10T15:51:54;8.15;;;3.30;;
10811;SDS011;5458;51.496;7.334;2023-01-10T15:57:06;9.57;;;3.00;;
10811;SDS011;5458;51.496;7.334;2023-01-10T15:59:45;10.43;;;3.60;;
10811;SDS011;5458;51.496;7.334;2023-01-10T16:02:21;10.38;;;4.20;;
10811;SDS011;5458;51.496;7.334;2023-01-10T16:04:50;8.80;;;3.45;;
10811;SDS011;5458;51.496;7.334;2023-01-10T16:07:21;8.85;;;3.70;;
10811;SDS011;5458;51.496;7.334;2023-01-10T16:10:00;12.05;;;3.90;;
10811;SDS011;5458;51.496;7.334;2023-01-10T16:12:38;8.50;;;4.07;;
10811;SDS011;5458;51.496;7.334;2023-01-10T16:15:24;7.03;;;3.20;;
10811;SDS011;5458;51.496;7.334;2023-01-10T16:17:55;9.60;;;3.78;;
10811;SDS011;5458;51.496;7.334;2023-01-10T16:20:31;11.65;;;3.85;;
10811;SDS011;5458;51.496;7.334;2023-01-10T16:23:03;9.38;;;4.88;;
10811;SDS011;5458;51.496;7.334;2023-01-10T16:25:37;10.23;;;3.70;;
10811;SDS011;5458;51.496;7.334;2023-01-10T16:28:08;8.07;;;3.65;;
10811;SDS011;5458;51.496;7.334;2023-01-10T16:30:35;17.33;;;4.55;;
10811;SDS011;5458;51.496;7.334;2023-01-10T16:33:11;9.30;;;3.63;;
10811;SDS011;5458;51.496;7.334;2023-01-10T16:35:40;11.63;;;4.25;;
10811;SDS011;5458;51.496;7.334;2023-01-10T16:38:07;11.48;;;3.88;;
10811;SDS011;5458;51.496;7.334;2023-01-10T16:40:41;11.73;;;4.45;;
10811;SDS011;5458;51.496;7.334;2023-01-10T16:43:10;11.68;;;4.38;;
10811;SDS011;5458;51.496;7.334;2023-01-10T16:45:45;11.82;;;4.13;;
10811;SDS011;5458;51.496;7.334;2023-01-10T16:48:15;11.88;;;3.42;;
10811;SDS011;5458;51.496;7.334;2023-01-10T16:50:42;14.23;;;4.25;;
10811;SDS011;5458;51.496;7.334;2023-01-10T16:53:11;9.65;;;3.80;;
10811;SDS011;5458;51.496;7.334;2023-01-10T16:55:40;10.85;;;4.95;;
10811;SDS011;5458;51.496;7.334;2023-01-10T16:58:10;10.98;;;4.25;;